Time;durP1;ratioP1;P1;durP2;ratioP2;P2;SDS_P1;SDS_P2;PMS_P1;PMS_P2;Temp;Humidity;BMP_temperature;BMP_pressure;BME280_temperature;BME280_humidity;BME280_pressure;Samples;Min_cycle;Max_cycle;Signal;HPM_P1;HPM_P2
2023/05/20 00:00:26;;;;;;;;;;;13.40;99.90;;;;;;5107409;28;19920;-70
2023/05/20 00:02:53;;;;;;;;;;;13.30;99.90;;;;;;5107086;28;19919;-69
2023/05/20 00:05:19;;;;;;;;;;;13.30;99.90;;;;;;5107035;28;20162;-69
2023/05/20 00:07:46;;;;;;;;;;;13.40;99.90;;;;;;5104056;28;20002;-69
2023/05/20 00:10:13;;;;;;;;;;;13.40;99.90;;;;;;5107245;28;19927;-69
2023/05/20 00:12:39;;;;;;;;;;;13.40;99.90;;;;;;5106983;28;19956;-69
2023/05/20 00:15:06;;;;;;;;;;;13.40;99.90;;;;;;5106502;28;19920;-70
2023/05/20 00:17:40;;;;;;;;;;;13.40;99.90;;;;;;5103285;28;19995;-70
2023/05/20 00:20:08;;;;;;;;;;;13.40;99.90;;;;;;5107153;28;19995;-70
2023/05/20 00:22:34;;;;;;;;;;;13.30;99.90;;;;;;5106785;28;19920;-69
2023/05/20 00:25:01;;;;;;;;;;;13.30;99.90;;;;;;5106718;28;20127;-70
2023/05/20 00:27:27;;;;;;;;;;;13.30;99.90;;;;;;5106184;28;19959;-70
2023/05/20 00:29:54;;;;;;;;;;;13.30;99.90;;;;;;5106815;28;19952;-70
2023/05/20 00:32:21;;;;;;;;;;;13.30;99.90;;;;;;5106323;28;19920;-70
2023/05/20 00:34:57;;;;;;;;;;;13.40;99.90;;;;;;5106664;28;19927;-70
2023/05/20 00:37:23;;;;;;;;;;;13.30;99.90;;;;;;5105081;28;20150;-69
2023/05/20 00:39:50;;;;;;;;;;;13.30;99.90;;;;;;5106246;28;20208;-73
2023/05/20 00:42:19;;;;;;;;;;;13.30;99.90;;;;;;5106544;28;19991;-70
2023/05/20 00:44:46;;;;;;;;;;;13.30;99.90;;;;;;5106325;28;20284;-70
2023/05/20 00:47:13;;;;;;;;;;;13.30;99.90;;;;;;5105815;28;19990;-70
2023/05/20 00:49:39;;;;;;;;;;;13.20;99.90;;;;;;5103730;28;20239;-70
2023/05/20 00:52:08;;;;;;;;;;;13.20;99.90;;;;;;5106089;28;19920;-70
2023/05/20 00:54:34;;;;;;;;;;;13.20;99.90;;;;;;5106313;28;20122;-69
2023/05/20 00:57:08;;;;;;;;;;;13.20;99.90;;;;;;5105299;28;19979;-70
2023/05/20 00:59:38;;;;;;;;;;;13.20;99.90;;;;;;5106370;28;19959;-70
2023/05/20 01:02:05;;;;;;;;;;;13.20;99.90;;;;;;5106197;28;19958;-70
2023/05/20 01:04:32;;;;;;;;;;;13.20;99.90;;;;;;5106021;28;19987;-70
2023/05/20 01:07:01;;;;;;;;;;;13.20;99.90;;;;;;5104856;28;20039;-70
2023/05/20 01:09:37;;;;;;;;;;;13.20;99.90;;;;;;5105921;28;19920;-70
2023/05/20 01:12:08;;;;;;;;;;;13.10;99.90;;;;;;5105484;28;19939;-70
2023/05/20 01:14:36;;;;;;;;;;;13.10;99.90;;;;;;5105493;28;19923;-69
2023/05/20 01:17:08;;;;;;;;;;;13.10;99.90;;;;;;5104880;28;20142;-69
2023/05/20 01:19:42;;;;;;;;;;;13.00;99.90;;;;;;5102768;28;19940;-70
2023/05/20 01:22:12;;;;;;;;;;;13.00;99.90;;;;;;5105618;28;19920;-70
2023/05/20 01:24:41;;;;;;;;;;;13.10;99.90;;;;;;5105561;28;19983;-71
2023/05/20 01:27:09;;;;;;;;;;;13.00;99.90;;;;;;5105180;28;20123;-70
2023/05/20 01:29:36;;;;;;;;;;;13.10;99.90;;;;;;5105319;28;19966;-71
2023/05/20 01:32:27;;;;;;;;;;;13.00;99.90;;;;;;5102541;28;19942;-70
2023/05/20 01:34:55;;;;;;;;;;;13.00;99.90;;;;;;5105041;28;20146;-70
2023/05/20 01:37:22;;;;;;;;;;;13.00;99.90;;;;;;5104902;28;19926;-69
2023/05/20 01:39:50;;;;;;;;;;;13.00;99.90;;;;;;5105449;28;19920;-70
2023/05/20 01:42:18;;;;;;;;;;;12.90;99.90;;;;;;5103010;28;19927;-72
2023/05/20 01:44:45;;;;;;;;;;;12.90;99.90;;;;;;5105801;28;19920;-70
2023/05/20 01:47:12;;;;;;;;;;;12.90;99.90;;;;;;5104475;28;19928;-69
2023/05/20 01:49:40;;;;;;;;;;;12.90;99.90;;;;;;5104791;28;19927;-69
2023/05/20 01:52:06;;;;;;;;;;;12.90;99.90;;;;;;5104912;28;19920;-70
2023/05/20 01:54:33;;;;;;;;;;;12.90;99.90;;;;;;5105124;28;19920;-70
2023/05/20 01:57:01;;;;;;;;;;;12.90;99.90;;;;;;5104320;28;19920;-70
2023/05/20 01:59:28;;;;;;;;;;;13.00;99.90;;;;;;5104470;28;19920;-69
2023/05/20 02:01:55;;;;;;;;;;;13.00;99.90;;;;;;5105008;28;19962;-70
2023/05/20 02:04:21;;;;;;;;;;;12.90;99.90;;;;;;5104959;28;19948;-70
2023/05/20 02:06:48;;;;;;;;;;;12.90;99.90;;;;;;5104223;28;19920;-70
2023/05/20 02:09:15;;;;;;;;;;;12.90;99.90;;;;;;5102296;28;20221;-69
2023/05/20 02:11:42;;;;;;;;;;;12.90;99.90;;;;;;5104836;28;19926;-70
2023/05/20 02:14:10;;;;;;;;;;;12.90;99.90;;;;;;5104609;28;19924;-70
2023/05/20 02:16:36;;;;;;;;;;;12.90;99.90;;;;;;5103211;28;19920;-70
2023/05/20 02:19:03;;;;;;;;;;;12.80;99.90;;;;;;5098924;28;19958;-69
2023/05/20 02:21:30;;;;;;;;;;;12.80;99.90;;;;;;5104501;28;19998;-70
2023/05/20 02:23:56;;;;;;;;;;;12.90;99.90;;;;;;5104637;28;19982;-70
2023/05/20 02:26:24;;;;;;;;;;;12.80;99.90;;;;;;5103473;28;19995;-70
2023/05/20 02:28:50;;;;;;;;;;;12.90;99.90;;;;;;5104196;28;19924;-69
2023/05/20 02:31:18;;;;;;;;;;;12.90;99.90;;;;;;5104536;28;19920;-70
2023/05/20 02:33:45;;;;;;;;;;;12.80;99.90;;;;;;5106988;28;19926;-69
2023/05/20 02:36:12;;;;;;;;;;;12.90;99.90;;;;;;5105872;28;19958;-70
2023/05/20 02:38:40;;;;;;;;;;;12.90;99.90;;;;;;5104054;28;19974;-70
2023/05/20 02:41:06;;;;;;;;;;;12.90;99.90;;;;;;5104119;28;20208;-69
2023/05/20 02:43:33;;;;;;;;;;;12.90;99.90;;;;;;5104421;28;19963;-69
2023/05/20 02:46:00;;;;;;;;;;;12.90;99.90;;;;;;5103974;28;19955;-69
2023/05/20 02:48:28;;;;;;;;;;;12.80;99.90;;;;;;5103631;28;20259;-70
2023/05/20 02:50:55;;;;;;;;;;;12.80;99.90;;;;;;5102949;28;19920;-69
2023/05/20 02:53:22;;;;;;;;;;;12.80;99.90;;;;;;5103742;28;19943;-70
2023/05/20 02:55:49;;;;;;;;;;;12.80;99.90;;;;;;5103823;28;19920;-70
2023/05/20 02:58:16;;;;;;;;;;;12.80;99.90;;;;;;5104091;28;19920;-70
2023/05/20 03:00:42;;;;;;;;;;;12.80;99.90;;;;;;5103225;28;19954;-69
2023/05/20 03:03:09;;;;;;;;;;;12.80;99.90;;;;;;5103733;28;20179;-70
2023/05/20 03:05:49;;;;;;;;;;;12.80;99.90;;;;;;5103742;28;20121;-70
2023/05/20 03:08:16;;;;;;;;;;;12.80;99.90;;;;;;5103669;28;19920;-70
2023/05/20 03:10:42;;;;;;;;;;;12.80;99.90;;;;;;5103678;28;19955;-70
2023/05/20 03:13:10;;;;;;;;;;;12.80;99.90;;;;;;5104273;28;19974;-70
2023/05/20 03:15:36;;;;;;;;;;;12.80;99.90;;;;;;5103732;28;19970;-70
2023/05/20 03:18:03;;;;;;;;;;;12.80;99.90;;;;;;5101338;28;19927;-70
2023/05/20 03:20:31;;;;;;;;;;;12.70;99.90;;;;;;5103510;28;20227;-70
2023/05/20 03:22:59;;;;;;;;;;;12.70;99.90;;;;;;5103357;28;19955;-70
2023/05/20 03:25:26;;;;;;;;;;;12.70;99.90;;;;;;5103407;28;19920;-70
2023/05/20 03:27:53;;;;;;;;;;;12.80;99.90;;;;;;5103011;28;20122;-71
2023/05/20 03:30:19;;;;;;;;;;;12.70;99.90;;;;;;5103617;28;19924;-71
2023/05/20 03:32:46;;;;;;;;;;;12.70;99.90;;;;;;5103468;28;19926;-70
2023/05/20 03:35:12;;;;;;;;;;;12.70;99.90;;;;;;5103312;28;19979;-70
2023/05/20 03:37:39;;;;;;;;;;;12.70;99.90;;;;;;5102953;28;19956;-70
2023/05/20 03:40:09;;;;;;;;;;;12.70;99.90;;;;;;5103135;28;19924;-70
2023/05/20 03:42:36;;;;;;;;;;;12.70;99.90;;;;;;5103089;28;20270;-70
2023/05/20 03:45:02;;;;;;;;;;;12.70;99.90;;;;;;5103520;28;20179;-70
2023/05/20 03:47:29;;;;;;;;;;;12.70;99.90;;;;;;5102843;28;19926;-70
2023/05/20 03:49:55;;;;;;;;;;;12.70;99.90;;;;;;5103114;28;19999;-70
2023/05/20 03:52:22;;;;;;;;;;;12.70;99.90;;;;;;5103095;28;19920;-71
2023/05/20 03:54:49;;;;;;;;;;;12.70;99.90;;;;;;5103482;28;19956;-70
2023/05/20 03:57:18;;;;;;;;;;;12.70;99.90;;;;;;5102409;28;19920;-71
2023/05/20 03:59:45;;;;;;;;;;;12.70;99.90;;;;;;5103230;28;19987;-70
2023/05/20 04:02:11;;;;;;;;;;;12.70;99.90;;;;;;5103043;28;20284;-70
2023/05/20 04:04:41;;;;;;;;;;;12.70;99.90;;;;;;5103241;28;20271;-70
2023/05/20 04:07:08;;;;;;;;;;;12.60;99.90;;;;;;5115964;28;19926;-70
2023/05/20 04:09:35;;;;;;;;;;;12.60;99.90;;;;;;5112253;28;19924;-70
2023/05/20 04:12:02;;;;;;;;;;;12.60;99.90;;;;;;5123748;28;19987;-70
2023/05/20 04:14:30;;;;;;;;;;;12.70;99.90;;;;;;5127410;28;19963;-69
2023/05/20 04:16:56;;;;;;;;;;;12.60;99.90;;;;;;5126474;28;19920;-70
2023/05/20 04:19:27;;;;;;;;;;;12.60;99.90;;;;;;5124180;28;19994;-70
2023/05/20 04:21:54;;;;;;;;;;;12.60;99.90;;;;;;5127343;28;19920;-70
2023/05/20 04:24:24;;;;;;;;;;;12.70;99.90;;;;;;5127254;28;19942;-70
2023/05/20 04:26:50;;;;;;;;;;;12.70;99.90;;;;;;5126883;28;20352;-71
2023/05/20 04:29:17;;;;;;;;;;;12.70;99.90;;;;;;5127371;28;19982;-70
2023/05/20 04:31:45;;;;;;;;;;;12.70;99.90;;;;;;5109228;28;19951;-70
2023/05/20 04:34:12;;;;;;;;;;;12.70;99.90;;;;;;5106738;28;19920;-70
2023/05/20 04:36:39;;;;;;;;;;;12.70;99.90;;;;;;5105433;28;19926;-71
2023/05/20 04:39:07;;;;;;;;;;;12.70;99.90;;;;;;5106281;28;20210;-69
2023/05/20 04:41:35;;;;;;;;;;;12.70;99.90;;;;;;5106319;28;19955;-70
2023/05/20 04:44:02;;;;;;;;;;;12.80;99.90;;;;;;5106258;28;19920;-70
2023/05/20 04:46:30;;;;;;;;;;;12.90;99.90;;;;;;5105905;28;19924;-71
2023/05/20 04:48:58;;;;;;;;;;;13.00;99.90;;;;;;5106272;28;19927;-71
2023/05/20 04:51:25;;;;;;;;;;;13.00;99.90;;;;;;5106401;28;19920;-70
2023/05/20 04:53:51;;;;;;;;;;;13.10;99.90;;;;;;5106581;28;19956;-70
2023/05/20 04:56:18;;;;;;;;;;;13.10;99.90;;;;;;5105754;28;20226;-70
2023/05/20 04:58:45;;;;;;;;;;;13.10;99.90;;;;;;5106279;28;19920;-71
2023/05/20 05:01:11;;;;;;;;;;;13.10;99.90;;;;;;5105757;28;20386;-71
2023/05/20 05:03:38;;;;;;;;;;;13.10;99.90;;;;;;5106124;28;19984;-70
2023/05/20 05:06:06;;;;;;;;;;;13.10;99.90;;;;;;5105510;28;19991;-71
2023/05/20 05:08:32;;;;;;;;;;;13.10;99.90;;;;;;5105876;28;19926;-71
2023/05/20 05:10:59;;;;;;;;;;;13.10;99.90;;;;;;5105663;28;20258;-70
2023/05/20 05:13:26;;;;;;;;;;;13.10;99.90;;;;;;5105904;28;19958;-71
2023/05/20 05:15:58;;;;;;;;;;;13.10;99.90;;;;;;5105708;28;19982;-71
2023/05/20 05:18:25;;;;;;;;;;;13.10;99.90;;;;;;5105157;28;19927;-72
2023/05/20 05:20:58;;;;;;;;;;;13.20;99.90;;;;;;5105862;28;19920;-72
2023/05/20 05:23:26;;;;;;;;;;;13.20;99.90;;;;;;5105018;28;19926;-71
2023/05/20 05:25:53;;;;;;;;;;;13.20;99.90;;;;;;5105430;28;19983;-71
2023/05/20 05:28:19;;;;;;;;;;;13.30;99.90;;;;;;5104829;28;19920;-72
2023/05/20 05:30:46;;;;;;;;;;;13.30;99.90;;;;;;5105371;28;19951;-71
2023/05/20 05:33:14;;;;;;;;;;;13.30;99.90;;;;;;5105359;28;19983;-71
2023/05/20 05:35:40;;;;;;;;;;;13.30;99.90;;;;;;5105016;28;19991;-71
2023/05/20 05:38:07;;;;;;;;;;;13.40;99.90;;;;;;5105224;28;19991;-71
2023/05/20 05:40:35;;;;;;;;;;;13.50;99.90;;;;;;5105419;28;19982;-71
2023/05/20 05:43:02;;;;;;;;;;;13.50;99.90;;;;;;5105179;28;19982;-68
2023/05/20 05:45:28;;;;;;;;;;;13.60;99.90;;;;;;5104928;28;19958;-71
2023/05/20 05:47:55;;;;;;;;;;;13.70;99.90;;;;;;5104121;28;19983;-69
2023/05/20 05:50:22;;;;;;;;;;;13.80;99.90;;;;;;5105057;28;20224;-71
2023/05/20 05:52:48;;;;;;;;;;;13.80;99.90;;;;;;5105164;28;19987;-69
2023/05/20 05:55:15;;;;;;;;;;;13.90;99.90;;;;;;5105003;28;20219;-69
2023/05/20 05:57:43;;;;;;;;;;;13.90;99.90;;;;;;5104701;28;19987;-70
2023/05/20 06:00:10;;;;;;;;;;;14.00;99.90;;;;;;5104991;28;19920;-70
2023/05/20 06:02:37;;;;;;;;;;;14.00;99.90;;;;;;5104857;28;19924;-70
2023/05/20 06:05:03;;;;;;;;;;;14.00;99.90;;;;;;5104572;28;20264;-70
2023/05/20 06:07:30;;;;;;;;;;;14.10;99.90;;;;;;5104491;28;19999;-70
2023/05/20 06:09:57;;;;;;;;;;;14.10;99.90;;;;;;5104592;28;19920;-70
2023/05/20 06:12:24;;;;;;;;;;;14.00;99.90;;;;;;5104714;28;19926;-70
2023/05/20 06:14:52;;;;;;;;;;;14.10;99.90;;;;;;5104507;28;20283;-70
2023/05/20 06:17:18;;;;;;;;;;;14.20;99.90;;;;;;5102573;28;19927;-70
2023/05/20 06:19:45;;;;;;;;;;;14.30;99.90;;;;;;5094120;28;19927;-70
2023/05/20 06:22:11;;;;;;;;;;;14.30;99.90;;;;;;5083764;28;20236;-70
2023/05/20 06:24:38;;;;;;;;;;;14.40;99.90;;;;;;5084055;28;19927;-70
2023/05/20 06:27:05;;;;;;;;;;;14.50;99.90;;;;;;5083273;28;20204;-69
2023/05/20 06:29:32;;;;;;;;;;;14.50;99.90;;;;;;5084126;28;19987;-69
2023/05/20 06:32:00;;;;;;;;;;;14.50;99.90;;;;;;5083777;28;20162;-70
2023/05/20 06:34:26;;;;;;;;;;;14.60;99.90;;;;;;5083514;28;19920;-70
2023/05/20 06:36:53;;;;;;;;;;;14.60;99.90;;;;;;5088394;28;19991;-69
2023/05/20 06:39:19;;;;;;;;;;;14.70;99.90;;;;;;5104253;28;19920;-71
2023/05/20 06:41:46;;;;;;;;;;;14.70;99.90;;;;;;5103799;28;19987;-72
2023/05/20 06:44:13;;;;;;;;;;;14.80;99.90;;;;;;5104219;28;19927;-70
2023/05/20 06:46:39;;;;;;;;;;;14.90;99.90;;;;;;5103588;28;19947;-71
2023/05/20 06:49:07;;;;;;;;;;;14.90;99.90;;;;;;5104178;28;20187;-70
2023/05/20 06:51:34;;;;;;;;;;;15.00;99.90;;;;;;5103762;28;19920;-70
2023/05/20 06:54:01;;;;;;;;;;;15.00;99.90;;;;;;5101145;28;19981;-70
2023/05/20 06:56:27;;;;;;;;;;;15.00;99.90;;;;;;5103117;28;19931;-70
2023/05/20 06:58:54;;;;;;;;;;;15.10;99.90;;;;;;5103343;28;20186;-70
2023/05/20 07:01:21;;;;;;;;;;;15.10;99.90;;;;;;5102440;28;19920;-70
2023/05/20 07:03:55;;;;;;;;;;;15.20;99.90;;;;;;5098744;28;19983;-69
2023/05/20 07:06:23;;;;;;;;;;;15.30;99.90;;;;;;5103009;28;19920;-69
2023/05/20 07:08:50;;;;;;;;;;;15.30;99.90;;;;;;5102743;28;19966;-71
2023/05/20 07:11:16;;;;;;;;;;;15.40;99.90;;;;;;5103045;28;19970;-71
2023/05/20 07:13:43;;;;;;;;;;;15.40;99.90;;;;;;5103207;28;20030;-71
2023/05/20 07:16:10;;;;;;;;;;;15.50;99.90;;;;;;5103134;28;19944;-70
2023/05/20 07:18:36;;;;;;;;;;;15.50;99.90;;;;;;5083201;28;20227;-71
2023/05/20 07:21:03;;;;;;;;;;;15.60;99.90;;;;;;5083400;28;19926;-71
2023/05/20 07:23:31;;;;;;;;;;;15.70;99.90;;;;;;5083567;28;19927;-70
2023/05/20 07:25:57;;;;;;;;;;;15.70;99.90;;;;;;5083027;28;20019;-70
2023/05/20 07:28:24;;;;;;;;;;;15.80;99.90;;;;;;5083133;28;20062;-69
2023/05/20 07:30:51;;;;;;;;;;;15.90;99.90;;;;;;5083010;28;19983;-70
2023/05/20 07:33:17;;;;;;;;;;;15.90;99.90;;;;;;5082964;28;19921;-70
2023/05/20 07:35:44;;;;;;;;;;;16.00;99.90;;;;;;5082392;28;19983;-69
2023/05/20 07:38:11;;;;;;;;;;;16.10;99.90;;;;;;5082743;28;19921;-69
2023/05/20 07:40:39;;;;;;;;;;;16.20;99.90;;;;;;5082994;28;19920;-69
2023/05/20 07:43:06;;;;;;;;;;;16.30;99.90;;;;;;5080564;28;19924;-71
2023/05/20 07:45:34;;;;;;;;;;;16.30;99.90;;;;;;5083897;28;19952;-70
2023/05/20 07:48:01;;;;;;;;;;;16.40;99.90;;;;;;5085522;28;20004;-69
2023/05/20 07:50:27;;;;;;;;;;;16.50;99.90;;;;;;5087324;28;19987;-70
2023/05/20 07:52:54;;;;;;;;;;;16.60;99.90;;;;;;5087125;28;19920;-70
2023/05/20 07:55:21;;;;;;;;;;;16.70;99.90;;;;;;5087028;28;19988;-70
2023/05/20 07:57:49;;;;;;;;;;;16.70;99.90;;;;;;5086816;28;19983;-69
2023/05/20 08:00:16;;;;;;;;;;;16.70;99.90;;;;;;5087068;28;19986;-70
2023/05/20 08:02:42;;;;;;;;;;;16.70;99.90;;;;;;5086787;28;19984;-70
2023/05/20 08:05:09;;;;;;;;;;;16.80;99.90;;;;;;5086785;28;19955;-70
2023/05/20 08:07:35;;;;;;;;;;;16.80;99.90;;;;;;5085952;28;20208;-71
2023/05/20 08:10:02;;;;;;;;;;;16.90;99.90;;;;;;5086719;28;19996;-71
2023/05/20 08:12:29;;;;;;;;;;;16.90;99.90;;;;;;5086681;28;19984;-70
2023/05/20 08:14:57;;;;;;;;;;;17.00;99.90;;;;;;5086399;28;19983;-70
2023/05/20 08:17:23;;;;;;;;;;;17.00;99.90;;;;;;5085805;28;19921;-70
2023/05/20 08:19:50;;;;;;;;;;;17.00;99.90;;;;;;5086637;28;19983;-70
2023/05/20 08:22:16;;;;;;;;;;;17.10;99.90;;;;;;5086194;28;19983;-70
2023/05/20 08:24:43;;;;;;;;;;;17.20;99.90;;;;;;5086023;28;20003;-70
2023/05/20 08:27:10;;;;;;;;;;;17.20;99.90;;;;;;5085429;28;20161;-70
2023/05/20 08:29:36;;;;;;;;;;;17.20;99.90;;;;;;5086967;28;19983;-70
2023/05/20 08:32:05;;;;;;;;;;;17.30;99.90;;;;;;5086076;28;19979;-70
2023/05/20 08:34:31;;;;;;;;;;;17.40;99.90;;;;;;5086470;28;19956;-70
2023/05/20 08:36:58;;;;;;;;;;;17.30;99.90;;;;;;5090498;28;19966;-70
2023/05/20 08:39:25;;;;;;;;;;;17.40;99.90;;;;;;5106190;28;20163;-70
2023/05/20 08:41:52;;;;;;;;;;;17.50;99.90;;;;;;5106251;28;19920;-71
2023/05/20 08:44:22;;;;;;;;;;;17.50;99.90;;;;;;5103938;28;19920;-70
2023/05/20 08:46:50;;;;;;;;;;;17.60;99.90;;;;;;5103300;28;19983;-70
2023/05/20 08:49:19;;;;;;;;;;;17.80;99.90;;;;;;5106501;28;19920;-70
2023/05/20 08:51:47;;;;;;;;;;;17.90;99.90;;;;;;5106122;28;19983;-71
2023/05/20 08:54:15;;;;;;;;;;;17.90;99.90;;;;;;5106214;28;19988;-70
2023/05/20 08:56:43;;;;;;;;;;;18.00;99.90;;;;;;5105227;28;19920;-70
2023/05/20 08:59:10;;;;;;;;;;;18.10;99.90;;;;;;5105634;28;19970;-69
2023/05/20 09:01:39;;;;;;;;;;;18.00;99.90;;;;;;5106165;28;19987;-71
2023/05/20 09:04:07;;;;;;;;;;;18.10;99.90;;;;;;5105986;28;19987;-69
2023/05/20 09:06:43;;;;;;;;;;;18.20;99.90;;;;;;5104969;28;19920;-69
2023/05/20 09:09:10;;;;;;;;;;;18.20;99.90;;;;;;5105712;28;19927;-69
2023/05/20 09:11:37;;;;;;;;;;;18.30;99.90;;;;;;5105943;28;19987;-67
2023/05/20 09:14:04;;;;;;;;;;;18.40;99.90;;;;;;5105785;28;19919;-70
2023/05/20 09:16:30;;;;;;;;;;;18.40;99.90;;;;;;5105557;28;19924;-71
2023/05/20 09:18:57;;;;;;;;;;;18.40;99.90;;;;;;5105884;28;19987;-69
2023/05/20 09:21:25;;;;;;;;;;;18.50;99.90;;;;;;5105310;28;20246;-70
2023/05/20 09:23:56;;;;;;;;;;;18.50;99.90;;;;;;5105774;28;19952;-70
2023/05/20 09:26:23;;;;;;;;;;;18.60;99.90;;;;;;5104604;28;19926;-70
2023/05/20 09:28:50;;;;;;;;;;;18.70;99.90;;;;;;5105468;28;20118;-70
2023/05/20 09:31:16;;;;;;;;;;;18.70;99.90;;;;;;5105135;28;20211;-70
2023/05/20 09:33:44;;;;;;;;;;;18.70;99.90;;;;;;5105437;28;19926;-70
2023/05/20 09:36:14;;;;;;;;;;;18.80;99.90;;;;;;5102464;28;19920;-70
2023/05/20 09:38:41;;;;;;;;;;;18.90;99.90;;;;;;5104573;28;19983;-70
2023/05/20 09:41:11;;;;;;;;;;;19.00;99.90;;;;;;5104746;28;20092;-70
2023/05/20 09:43:39;;;;;;;;;;;18.90;99.90;;;;;;5104546;28;19920;-70
2023/05/20 09:46:15;;;;;;;;;;;18.90;99.90;;;;;;5104400;28;19927;-70
2023/05/20 09:48:42;;;;;;;;;;;19.10;99.90;;;;;;5105976;28;19920;-71
2023/05/20 09:51:09;;;;;;;;;;;19.20;99.90;;;;;;5105228;28;19920;-70
2023/05/20 09:53:36;;;;;;;;;;;19.30;99.90;;;;;;5104918;28;19934;-71
2023/05/20 09:56:04;;;;;;;;;;;19.40;99.90;;;;;;5101340;28;19987;-71
2023/05/20 09:58:33;;;;;;;;;;;19.50;99.90;;;;;;5104562;28;19960;-70
2023/05/20 10:01:00;;;;;;;;;;;19.70;99.90;;;;;;5105124;28;19955;-71
2023/05/20 10:03:27;;;;;;;;;;;19.80;99.90;;;;;;5104822;28;19990;-71
2023/05/20 10:06:00;;;;;;;;;;;20.00;99.90;;;;;;5104664;28;19920;-71
2023/05/20 10:08:41;;;;;;;;;;;20.10;99.90;;;;;;5104488;28;19927;-71
2023/05/20 10:11:13;;;;;;;;;;;20.20;99.90;;;;;;5104120;28;20259;-71
2023/05/20 10:13:49;;;;;;;;;;;20.40;99.90;;;;;;5104658;28;19983;-70
2023/05/20 10:16:22;;;;;;;;;;;20.50;99.90;;;;;;5103619;28;20263;-70
2023/05/20 10:18:55;;;;;;;;;;;20.60;99.90;;;;;;5105158;28;19924;-72
2023/05/20 10:21:23;;;;;;;;;;;20.50;99.90;;;;;;5104619;28;19924;-70
2023/05/20 10:24:09;;;;;;;;;;;;;;;;;;;;;
2023/05/20 10:26:36;;;;;;;;;;;20.50;99.90;;;;;;5103854;28;19926;-71
2023/05/20 10:29:17;;;;;;;;;;;20.50;99.90;;;;;;5104389;28;19920;-69
2023/05/20 10:31:50;;;;;;;;;;;20.60;99.90;;;;;;5105603;28;20111;-72
2023/05/20 10:34:29;;;;;;;;;;;20.70;99.90;;;;;;5104908;28;20207;-70
2023/05/20 10:36:59;;;;;;;;;;;20.80;99.90;;;;;;5104158;28;20172;-70
2023/05/20 10:39:26;;;;;;;;;;;20.90;99.90;;;;;;5083933;28;19920;-71
2023/05/20 10:41:53;;;;;;;;;;;21.10;99.90;;;;;;5083852;28;19920;-70
2023/05/20 10:44:20;;;;;;;;;;;21.40;99.90;;;;;;5092172;28;19955;-70
2023/05/20 10:47:01;;;;;;;;;;;21.50;99.90;;;;;;5102911;28;19919;-70
2023/05/20 10:49:33;;;;;;;;;;;21.40;99.90;;;;;;5104101;28;19920;-70
2023/05/20 10:51:59;;;;;;;;;;;21.30;99.90;;;;;;5103761;28;19920;-69
2023/05/20 10:54:27;;;;;;;;;;;21.30;99.90;;;;;;5098978;28;19986;-71
2023/05/20 10:56:54;;;;;;;;;;;21.50;99.90;;;;;;5102279;28;19920;-71
2023/05/20 10:59:22;;;;;;;;;;;21.50;99.90;;;;;;5103847;28;19926;-71
2023/05/20 11:01:49;;;;;;;;;;;21.50;99.90;;;;;;5103675;28;19920;-71
2023/05/20 11:04:16;;;;;;;;;;;21.50;99.90;;;;;;5103628;28;19926;-72
2023/05/20 11:06:49;;;;;;;;;;;21.50;99.90;;;;;;5100206;28;19928;-72
2023/05/20 11:09:16;;;;;;;;;;;21.30;99.90;;;;;;5103321;28;20215;-70
2023/05/20 11:11:43;;;;;;;;;;;21.20;99.90;;;;;;5103808;28;19987;-71
2023/05/20 11:14:13;;;;;;;;;;;21.20;99.90;;;;;;5101231;28;19942;-71
2023/05/20 11:16:41;;;;;;;;;;;21.20;99.90;;;;;;5103238;28;19920;-71
2023/05/20 11:19:14;;;;;;;;;;;21.30;99.90;;;;;;5101364;28;19920;-72
2023/05/20 11:21:42;;;;;;;;;;;21.30;99.90;;;;;;5103043;28;19920;-70
2023/05/20 11:24:09;;;;;;;;;;;21.40;99.90;;;;;;5104207;28;19920;-70
2023/05/20 11:26:36;;;;;;;;;;;21.50;99.90;;;;;;5103441;28;19920;-70
2023/05/20 11:29:03;;;;;;;;;;;21.80;99.90;;;;;;5103896;28;19991;-70
2023/05/20 11:31:37;;;;;;;;;;;22.10;99.90;;;;;;5102817;28;19920;-70
2023/05/20 11:34:05;;;;;;;;;;;22.30;99.90;;;;;;5103621;28;19920;-71
2023/05/20 11:36:32;;;;;;;;;;;22.50;99.90;;;;;;5103206;28;19927;-71
2023/05/20 11:38:59;;;;;;;;;;;22.50;99.90;;;;;;5103972;28;19973;-71
2023/05/20 11:41:26;;;;;;;;;;;22.40;99.90;;;;;;5101874;28;19921;-70
2023/05/20 11:43:57;;;;;;;;;;;22.30;99.90;;;;;;5103228;28;19983;-71
2023/05/20 11:46:23;;;;;;;;;;;22.40;99.90;;;;;;5102809;28;19920;-72
2023/05/20 11:48:53;;;;;;;;;;;22.50;99.90;;;;;;5103864;28;19979;-70
2023/05/20 11:51:24;;;;;;;;;;;22.70;99.90;;;;;;5103739;28;19926;-70
2023/05/20 11:53:52;;;;;;;;;;;22.70;99.90;;;;;;5101184;28;19928;-72
2023/05/20 11:56:23;;;;;;;;;;;22.60;99.90;;;;;;5100623;28;19920;-71
2023/05/20 11:58:49;;;;;;;;;;;22.50;99.90;;;;;;5103695;28;19935;-74
2023/05/20 12:01:16;;;;;;;;;;;22.70;99.90;;;;;;5103540;28;19920;-71
2023/05/20 12:03:43;;;;;;;;;;;22.90;99.90;;;;;;5103812;28;20168;-73
2023/05/20 12:06:11;;;;;;;;;;;23.10;99.90;;;;;;5103053;28;19955;-71
2023/05/20 12:08:39;;;;;;;;;;;23.10;99.90;;;;;;5103080;28;19920;-72
2023/05/20 12:11:06;;;;;;;;;;;23.10;99.90;;;;;;5103540;28;19924;-72
2023/05/20 12:13:32;;;;;;;;;;;23.20;99.90;;;;;;5100166;28;19995;-72
2023/05/20 12:15:59;;;;;;;;;;;23.40;99.90;;;;;;5102901;28;19926;-72
2023/05/20 12:18:26;;;;;;;;;;;23.50;99.90;;;;;;5102727;28;19920;-72
2023/05/20 12:20:52;;;;;;;;;;;23.50;99.90;;;;;;5103314;28;19924;-72
2023/05/20 12:23:20;;;;;;;;;;;23.40;99.90;;;;;;5102977;28;20187;-72
2023/05/20 12:25:48;;;;;;;;;;;23.20;99.90;;;;;;5103020;28;19961;-72
2023/05/20 12:28:15;;;;;;;;;;;23.20;99.90;;;;;;5102951;28;19921;-72
2023/05/20 12:30:42;;;;;;;;;;;23.20;99.90;;;;;;5102792;28;19942;-72
2023/05/20 12:33:09;;;;;;;;;;;23.10;99.90;;;;;;5104463;28;19920;-71
2023/05/20 12:35:37;;;;;;;;;;;23.00;99.90;;;;;;5106673;28;19983;-72
2023/05/20 12:38:03;;;;;;;;;;;23.10;99.90;;;;;;5106528;28;19926;-72
2023/05/20 12:40:30;;;;;;;;;;;23.20;99.90;;;;;;5106841;28;19921;-72
2023/05/20 12:42:59;;;;;;;;;;;23.30;99.90;;;;;;5106558;28;20215;-72
2023/05/20 12:45:26;;;;;;;;;;;23.50;99.90;;;;;;5106747;28;19927;-72
2023/05/20 12:47:53;;;;;;;;;;;23.60;99.90;;;;;;5106541;28;20247;-72
2023/05/20 12:50:19;;;;;;;;;;;23.70;99.90;;;;;;5106563;28;19926;-72
2023/05/20 12:52:46;;;;;;;;;;;23.70;99.90;;;;;;5106221;28;20231;-73
2023/05/20 12:55:21;;;;;;;;;;;23.60;99.90;;;;;;5103956;28;19926;-73
2023/05/20 12:57:48;;;;;;;;;;;23.50;99.90;;;;;;5105589;28;20208;-72
2023/05/20 13:00:17;;;;;;;;;;;23.60;99.90;;;;;;5106632;28;19926;-73
2023/05/20 13:02:43;;;;;;;;;;;23.60;99.90;;;;;;5106000;28;19919;-73
2023/05/20 13:05:10;;;;;;;;;;;23.60;99.90;;;;;;5106384;28;19920;-73
2023/05/20 13:07:37;;;;;;;;;;;23.60;99.90;;;;;;5105598;28;20279;-73
2023/05/20 13:10:04;;;;;;;;;;;23.60;99.90;;;;;;5106450;28;19920;-72
2023/05/20 13:12:30;;;;;;;;;;;23.40;99.90;;;;;;5102046;28;19930;-71
2023/05/20 13:14:57;;;;;;;;;;;23.20;99.90;;;;;;5104427;28;19927;-73
2023/05/20 13:17:25;;;;;;;;;;;23.20;99.90;;;;;;5103292;28;19958;-73
2023/05/20 13:19:52;;;;;;;;;;;23.20;99.90;;;;;;5097344;28;20234;-71
2023/05/20 13:22:18;;;;;;;;;;;23.30;99.90;;;;;;5093902;28;19955;-72
2023/05/20 13:24:45;;;;;;;;;;;23.40;99.90;;;;;;5099856;28;19920;-72
2023/05/20 13:27:12;;;;;;;;;;;23.30;99.90;;;;;;5098776;28;19920;-71
2023/05/20 13:29:38;;;;;;;;;;;23.10;99.90;;;;;;5096045;28;19980;-72
2023/05/20 13:32:05;;;;;;;;;;;23.00;99.90;;;;;;5098660;28;19920;-71
2023/05/20 13:34:33;;;;;;;;;;;22.90;99.90;;;;;;5103319;28;19926;-72
2023/05/20 13:37:00;;;;;;;;;;;22.70;99.90;;;;;;5093039;28;19927;-72
2023/05/20 13:39:27;;;;;;;;;;;22.70;99.90;;;;;;5105006;28;19956;-70
2023/05/20 13:41:54;;;;;;;;;;;22.60;99.90;;;;;;5100627;28;20029;-70
2023/05/20 13:44:22;;;;;;;;;;;22.50;99.90;;;;;;5092366;28;19927;-74
2023/05/20 13:46:49;;;;;;;;;;;22.50;99.90;;;;;;5104741;28;19920;-75
2023/05/20 13:49:15;;;;;;;;;;;22.50;99.90;;;;;;5103127;28;20157;-72
2023/05/20 13:51:44;;;;;;;;;;;22.50;99.90;;;;;;5104586;28;19966;-72
2023/05/20 13:54:11;;;;;;;;;;;22.30;99.90;;;;;;5103162;28;20228;-71
2023/05/20 13:56:38;;;;;;;;;;;22.30;99.90;;;;;;5102068;28;19928;-70
2023/05/20 13:59:04;;;;;;;;;;;22.20;99.90;;;;;;5104613;28;20130;-72
2023/05/20 14:01:32;;;;;;;;;;;22.10;99.90;;;;;;5104604;28;19924;-71
2023/05/20 14:03:58;;;;;;;;;;;22.10;99.90;;;;;;5104943;28;19928;-70
2023/05/20 14:06:26;;;;;;;;;;;22.10;99.90;;;;;;5103175;28;20388;-70
2023/05/20 14:08:56;;;;;;;;;;;22.00;99.90;;;;;;5103091;28;19995;-71
2023/05/20 14:11:23;;;;;;;;;;;22.00;99.90;;;;;;5104426;28;19927;-70
2023/05/20 14:13:49;;;;;;;;;;;22.10;99.90;;;;;;5104696;28;19924;-71
2023/05/20 14:16:16;;;;;;;;;;;22.30;99.90;;;;;;5103579;28;19974;-70
2023/05/20 14:18:43;;;;;;;;;;;22.60;99.90;;;;;;5104541;28;19939;-71
2023/05/20 14:21:09;;;;;;;;;;;22.90;99.90;;;;;;5101122;28;20176;-71